sensor_id;sensor_type;location;lat;lon;timestamp;temperature;humidity
26035;DHT22;13809;48.632;11.576;2023-03-23T00:00:28;14.10;28.50
26035;DHT22;13809;48.632;11.576;2023-03-23T00:05:32;14.00;28.50
26035;DHT22;13809;48.632;11.576;2023-03-23T00:10:37;13.90;28.60
26035;DHT22;13809;48.632;11.576;2023-03-23T00:15:39;13.90;28.60
26035;DHT22;13809;48.632;11.576;2023-03-23T00:20:43;13.80;28.60
26035;DHT22;13809;48.632;11.576;2023-03-23T00:25:47;13.80;28.90
26035;DHT22;13809;48.632;11.576;2023-03-23T00:30:49;13.70;28.80
26035;DHT22;13809;48.632;11.576;2023-03-23T00:35:58;13.70;28.90
26035;DHT22;13809;48.632;11.576;2023-03-23T00:41:01;13.70;29.10
26035;DHT22;13809;48.632;11.576;2023-03-23T00:46:04;13.60;28.90
26035;DHT22;13809;48.632;11.576;2023-03-23T00:51:11;13.60;29.00
26035;DHT22;13809;48.632;11.576;2023-03-23T00:56:14;13.60;29.10
26035;DHT22;13809;48.632;11.576;2023-03-23T01:01:16;13.50;29.00
26035;DHT22;13809;48.632;11.576;2023-03-23T01:06:20;13.40;29.00
26035;DHT22;13809;48.632;11.576;2023-03-23T01:11:22;13.30;29.40
26035;DHT22;13809;48.632;11.576;2023-03-23T01:16:24;13.30;29.20
26035;DHT22;13809;48.632;11.576;2023-03-23T01:21:28;13.20;29.30
26035;DHT22;13809;48.632;11.576;2023-03-23T01:26:30;13.20;29.50
26035;DHT22;13809;48.632;11.576;2023-03-23T01:31:33;13.20;29.50
26035;DHT22;13809;48.632;11.576;2023-03-23T01:36:38;13.10;29.50
26035;DHT22;13809;48.632;11.576;2023-03-23T01:41:40;13.10;29.70
26035;DHT22;13809;48.632;11.576;2023-03-23T01:46:44;13.00;29.50
26035;DHT22;13809;48.632;11.576;2023-03-23T01:51:49;13.00;29.80
26035;DHT22;13809;48.632;11.576;2023-03-23T01:56:59;12.90;30.30
26035;DHT22;13809;48.632;11.576;2023-03-23T02:02:02;12.90;30.30
26035;DHT22;13809;48.632;11.576;2023-03-23T02:07:06;12.80;29.80
26035;DHT22;13809;48.632;11.576;2023-03-23T02:12:08;12.70;30.10
26035;DHT22;13809;48.632;11.576;2023-03-23T02:17:17;12.70;30.10
26035;DHT22;13809;48.632;11.576;2023-03-23T02:23:07;12.60;30.00
26035;DHT22;13809;48.632;11.576;2023-03-23T02:28:44;12.60;30.30
26035;DHT22;13809;48.632;11.576;2023-03-23T02:33:55;12.50;30.60
26035;DHT22;13809;48.632;11.576;2023-03-23T02:39:05;12.40;31.00
26035;DHT22;13809;48.632;11.576;2023-03-23T02:44:10;12.30;31.30
26035;DHT22;13809;48.632;11.576;2023-03-23T02:49:16;12.30;30.70
26035;DHT22;13809;48.632;11.576;2023-03-23T02:54:20;12.20;31.20
26035;DHT22;13809;48.632;11.576;2023-03-23T02:59:23;12.20;31.20
26035;DHT22;13809;48.632;11.576;2023-03-23T03:04:27;12.10;31.00
26035;DHT22;13809;48.632;11.576;2023-03-23T03:09:38;12.20;31.60
26035;DHT22;13809;48.632;11.576;2023-03-23T03:14:50;12.30;32.00
26035;DHT22;13809;48.632;11.576;2023-03-23T03:20:00;12.30;32.00
26035;DHT22;13809;48.632;11.576;2023-03-23T03:25:08;12.30;31.90
26035;DHT22;13809;48.632;11.576;2023-03-23T03:30:12;12.30;31.40
26035;DHT22;13809;48.632;11.576;2023-03-23T03:35:19;12.30;31.90
26035;DHT22;13809;48.632;11.576;2023-03-23T03:40:23;12.30;31.60
26035;DHT22;13809;48.632;11.576;2023-03-23T03:45:25;12.40;31.60
26035;DHT22;13809;48.632;11.576;2023-03-23T03:50:28;12.40;31.70
26035;DHT22;13809;48.632;11.576;2023-03-23T03:55:31;12.50;32.30
26035;DHT22;13809;48.632;11.576;2023-03-23T04:00:36;12.50;32.00
26035;DHT22;13809;48.632;11.576;2023-03-23T04:05:41;12.50;32.00
26035;DHT22;13809;48.632;11.576;2023-03-23T04:10:45;12.50;32.40
26035;DHT22;13809;48.632;11.576;2023-03-23T04:15:49;12.60;32.10
26035;DHT22;13809;48.632;11.576;2023-03-23T04:20:52;12.60;32.20
26035;DHT22;13809;48.632;11.576;2023-03-23T04:25:54;12.70;32.50
26035;DHT22;13809;48.632;11.576;2023-03-23T04:30:57;12.70;32.20
26035;DHT22;13809;48.632;11.576;2023-03-23T04:36:02;12.80;32.30
26035;DHT22;13809;48.632;11.576;2023-03-23T04:41:06;12.90;33.30
26035;DHT22;13809;48.632;11.576;2023-03-23T04:46:08;13.00;32.30
26035;DHT22;13809;48.632;11.576;2023-03-23T04:51:12;13.00;32.30
26035;DHT22;13809;48.632;11.576;2023-03-23T04:56:14;13.10;32.70
26035;DHT22;13809;48.632;11.576;2023-03-23T05:01:16;13.10;32.70
26035;DHT22;13809;48.632;11.576;2023-03-23T05:06:21;13.10;32.90
26035;DHT22;13809;48.632;11.576;2023-03-23T05:11:24;13.10;33.20
26035;DHT22;13809;48.632;11.576;2023-03-23T05:16:26;13.10;32.90
26035;DHT22;13809;48.632;11.576;2023-03-23T05:21:31;13.10;33.00
26035;DHT22;13809;48.632;11.576;2023-03-23T05:26:33;13.10;33.40
26035;DHT22;13809;48.632;11.576;2023-03-23T05:31:35;13.10;33.30
26035;DHT22;13809;48.632;11.576;2023-03-23T05:36:42;13.10;33.30
26035;DHT22;13809;48.632;11.576;2023-03-23T05:41:45;13.00;34.00
26035;DHT22;13809;48.632;11.576;2023-03-23T05:46:47;13.00;33.30
26035;DHT22;13809;48.632;11.576;2023-03-23T05:51:51;13.10;33.40
26035;DHT22;13809;48.632;11.576;2023-03-23T05:56:53;13.20;33.70
26035;DHT22;13809;48.632;11.576;2023-03-23T06:01:55;13.30;33.40
26035;DHT22;13809;48.632;11.576;2023-03-23T06:07:00;13.30;33.40
26035;DHT22;13809;48.632;11.576;2023-03-23T06:12:03;13.50;33.60
26035;DHT22;13809;48.632;11.576;2023-03-23T06:17:05;13.60;33.30
26035;DHT22;13809;48.632;11.576;2023-03-23T06:22:10;13.70;33.20
26035;DHT22;13809;48.632;11.576;2023-03-23T06:27:12;13.90;33.40
26035;DHT22;13809;48.632;11.576;2023-03-23T06:32:15;14.10;33.20
26035;DHT22;13809;48.632;11.576;2023-03-23T06:37:19;14.30;33.20
26035;DHT22;13809;48.632;11.576;2023-03-23T06:42:22;14.40;33.30
26035;DHT22;13809;48.632;11.576;2023-03-23T06:47:26;14.40;33.00
26035;DHT22;13809;48.632;11.576;2023-03-23T06:52:29;14.50;32.80
26035;DHT22;13809;48.632;11.576;2023-03-23T06:57:32;14.60;33.10
26035;DHT22;13809;48.632;11.576;2023-03-23T07:02:34;14.60;32.80
26035;DHT22;13809;48.632;11.576;2023-03-23T07:07:39;14.70;32.90
26035;DHT22;13809;48.632;11.576;2023-03-23T07:12:41;14.70;33.20
26035;DHT22;13809;48.632;11.576;2023-03-23T07:17:43;14.70;32.80
26035;DHT22;13809;48.632;11.576;2023-03-23T07:22:47;14.80;32.80
26035;DHT22;13809;48.632;11.576;2023-03-23T07:27:50;14.80;32.90
26035;DHT22;13809;48.632;11.576;2023-03-23T07:32:52;14.90;32.90
26035;DHT22;13809;48.632;11.576;2023-03-23T07:37:56;14.90;32.70
26035;DHT22;13809;48.632;11.576;2023-03-23T07:42:58;15.00;32.80
26035;DHT22;13809;48.632;11.576;2023-03-23T07:48:01;15.10;32.70
26035;DHT22;13809;48.632;11.576;2023-03-23T07:53:04;15.20;32.40
26035;DHT22;13809;48.632;11.576;2023-03-23T07:58:06;15.30;32.40
26035;DHT22;13809;48.632;11.576;2023-03-23T08:03:09;15.50;32.50
26035;DHT22;13809;48.632;11.576;2023-03-23T08:08:12;15.60;32.60
26035;DHT22;13809;48.632;11.576;2023-03-23T08:13:15;15.80;32.70
26035;DHT22;13809;48.632;11.576;2023-03-23T08:18:17;15.90;32.60
26035;DHT22;13809;48.632;11.576;2023-03-23T08:23:21;16.00;32.30
26035;DHT22;13809;48.632;11.576;2023-03-23T08:28:23;16.20;31.90
26035;DHT22;13809;48.632;11.576;2023-03-23T08:33:25;16.40;32.00
26035;DHT22;13809;48.632;11.576;2023-03-23T08:38:30;16.60;31.80
26035;DHT22;13809;48.632;11.576;2023-03-23T08:43:33;16.70;31.40
26035;DHT22;13809;48.632;11.576;2023-03-23T08:48:36;16.90;31.70
26035;DHT22;13809;48.632;11.576;2023-03-23T08:53:40;17.10;31.50
26035;DHT22;13809;48.632;11.576;2023-03-23T08:58:43;17.20;31.40
26035;DHT22;13809;48.632;11.576;2023-03-23T09:03:45;17.30;31.20
26035;DHT22;13809;48.632;11.576;2023-03-23T09:08:49;17.40;31.20
26035;DHT22;13809;48.632;11.576;2023-03-23T09:13:51;17.60;30.90
26035;DHT22;13809;48.632;11.576;2023-03-23T09:18:53;17.60;31.10
26035;DHT22;13809;48.632;11.576;2023-03-23T09:23:58;17.70;30.90
26035;DHT22;13809;48.632;11.576;2023-03-23T09:29:02;17.90;31.00
26035;DHT22;13809;48.632;11.576;2023-03-23T09:34:04;17.90;31.00
26035;DHT22;13809;48.632;11.576;2023-03-23T09:39:08;18.00;31.20
26035;DHT22;13809;48.632;11.576;2023-03-23T09:44:20;18.10;30.50
26035;DHT22;13809;48.632;11.576;2023-03-23T09:49:26;18.30;30.00
26035;DHT22;13809;48.632;11.576;2023-03-23T09:54:33;18.60;30.20
26035;DHT22;13809;48.632;11.576;2023-03-23T09:59:41;18.80;29.40
26035;DHT22;13809;48.632;11.576;2023-03-23T10:04:45;19.00;29.10
26035;DHT22;13809;48.632;11.576;2023-03-23T10:09:52;19.20;29.30
26035;DHT22;13809;48.632;11.576;2023-03-23T10:15:04;19.30;28.90
26035;DHT22;13809;48.632;11.576;2023-03-23T10:20:42;19.50;28.60
26035;DHT22;13809;48.632;11.576;2023-03-23T10:25:52;19.60;28.90
26035;DHT22;13809;48.632;11.576;2023-03-23T10:30:56;19.70;28.60
26035;DHT22;13809;48.632;11.576;2023-03-23T10:36:01;19.80;28.60
26035;DHT22;13809;48.632;11.576;2023-03-23T10:41:11;19.90;28.60
26035;DHT22;13809;48.632;11.576;2023-03-23T10:46:22;20.00;28.20
26035;DHT22;13809;48.632;11.576;2023-03-23T10:51:32;20.20;27.40
26035;DHT22;13809;48.632;11.576;2023-03-23T10:56:38;20.30;27.50
26035;DHT22;13809;48.632;11.576;2023-03-23T11:01:43;20.30;27.80
26035;DHT22;13809;48.632;11.576;2023-03-23T11:06:48;20.40;27.90
26035;DHT22;13809;48.632;11.576;2023-03-23T11:11:53;20.40;27.40
26035;DHT22;13809;48.632;11.576;2023-03-23T11:16:57;20.50;27.50
26035;DHT22;13809;48.632;11.576;2023-03-23T11:22:08;20.50;27.80
26035;DHT22;13809;48.632;11.576;2023-03-23T11:27:13;20.60;27.30
26035;DHT22;13809;48.632;11.576;2023-03-23T11:32:16;20.70;27.80
26035;DHT22;13809;48.632;11.576;2023-03-23T11:37:22;20.80;27.60
26035;DHT22;13809;48.632;11.576;2023-03-23T11:42:44;20.90;27.40
26035;DHT22;13809;48.632;11.576;2023-03-23T11:48:21;21.00;27.20
26035;DHT22;13809;48.632;11.576;2023-03-23T11:53:45;21.30;27.60
26035;DHT22;13809;48.632;11.576;2023-03-23T11:58:50;21.20;26.10
26035;DHT22;13809;48.632;11.576;2023-03-23T12:09:39;21.20;26.20
26035;DHT22;13809;48.632;11.576;2023-03-23T12:14:51;21.20;26.10
26035;DHT22;13809;48.632;11.576;2023-03-23T12:20:05;21.10;26.10
26035;DHT22;13809;48.632;11.576;2023-03-23T12:25:30;21.00;26.00
26035;DHT22;13809;48.632;11.576;2023-03-23T12:30:39;20.90;25.90
26035;DHT22;13809;48.632;11.576;2023-03-23T12:35:52;20.80;26.30
26035;DHT22;13809;48.632;11.576;2023-03-23T12:41:05;20.70;26.60
26035;DHT22;13809;48.632;11.576;2023-03-23T12:46:23;20.70;26.40
26035;DHT22;13809;48.632;11.576;2023-03-23T12:51:42;20.70;26.30
26035;DHT22;13809;48.632;11.576;2023-03-23T12:56:51;20.70;26.20
26035;DHT22;13809;48.632;11.576;2023-03-23T13:02:01;20.70;26.60
26035;DHT22;13809;48.632;11.576;2023-03-23T13:07:07;20.70;26.60
26035;DHT22;13809;48.632;11.576;2023-03-23T13:12:12;20.60;26.80
26035;DHT22;13809;48.632;11.576;2023-03-23T13:17:24;20.60;27.00
26035;DHT22;13809;48.632;11.576;2023-03-23T13:22:33;20.70;26.60
26035;DHT22;13809;48.632;11.576;2023-03-23T13:27:37;20.70;26.60
26035;DHT22;13809;48.632;11.576;2023-03-23T13:32:41;20.70;27.10
26035;DHT22;13809;48.632;11.576;2023-03-23T13:37:48;20.70;26.90
26035;DHT22;13809;48.632;11.576;2023-03-23T13:42:54;20.70;27.20
26035;DHT22;13809;48.632;11.576;2023-03-23T13:48:05;20.60;26.90
26035;DHT22;13809;48.632;11.576;2023-03-23T13:53:14;20.70;26.70
26035;DHT22;13809;48.632;11.576;2023-03-23T13:58:23;20.70;26.60
26035;DHT22;13809;48.632;11.576;2023-03-23T14:03:41;20.70;26.60
26035;DHT22;13809;48.632;11.576;2023-03-23T14:08:55;20.80;26.80
26035;DHT22;13809;48.632;11.576;2023-03-23T14:14:04;20.80;26.80
26035;DHT22;13809;48.632;11.576;2023-03-23T14:19:23;20.90;26.70
26035;DHT22;13809;48.632;11.576;2023-03-23T14:24:27;20.90;25.90
26035;DHT22;13809;48.632;11.576;2023-03-23T14:29:32;20.90;26.60
26035;DHT22;13809;48.632;11.576;2023-03-23T14:34:36;20.90;26.40
26035;DHT22;13809;48.632;11.576;2023-03-23T14:40:15;20.90;26.40
26035;DHT22;13809;48.632;11.576;2023-03-23T14:45:20;20.90;26.00
26035;DHT22;13809;48.632;11.576;2023-03-23T14:50:27;21.00;26.60
26035;DHT22;13809;48.632;11.576;2023-03-23T14:55:31;20.90;26.60
26035;DHT22;13809;48.632;11.576;2023-03-23T15:00:35;20.90;26.70
26035;DHT22;13809;48.632;11.576;2023-03-23T15:05:42;20.90;26.70
26035;DHT22;13809;48.632;11.576;2023-03-23T15:10:52;20.90;26.50
26035;DHT22;13809;48.632;11.576;2023-03-23T15:16:04;20.90;26.40
26035;DHT22;13809;48.632;11.576;2023-03-23T15:21:21;20.60;26.50
26035;DHT22;13809;48.632;11.576;2023-03-23T15:26:30;20.80;26.50
26035;DHT22;13809;48.632;11.576;2023-03-23T15:31:33;20.80;26.60
26035;DHT22;13809;48.632;11.576;2023-03-23T15:36:36;20.80;26.90
26035;DHT22;13809;48.632;11.576;2023-03-23T15:41:49;20.80;26.80
26035;DHT22;13809;48.632;11.576;2023-03-23T15:46:53;20.80;26.50
26035;DHT22;13809;48.632;11.576;2023-03-23T15:52:02;20.80;26.90
26035;DHT22;13809;48.632;11.576;2023-03-23T15:57:04;20.70;26.90
26035;DHT22;13809;48.632;11.576;2023-03-23T16:02:17;20.70;27.20
26035;DHT22;13809;48.632;11.576;2023-03-23T16:07:23;20.70;26.80
26035;DHT22;13809;48.632;11.576;2023-03-23T16:12:28;20.70;27.00
26035;DHT22;13809;48.632;11.576;2023-03-23T16:17:35;20.80;27.10
26035;DHT22;13809;48.632;11.576;2023-03-23T16:22:49;20.80;27.70
26035;DHT22;13809;48.632;11.576;2023-03-23T16:27:53;20.70;26.70
26035;DHT22;13809;48.632;11.576;2023-03-23T16:32:57;20.60;27.00
26035;DHT22;13809;48.632;11.576;2023-03-23T16:38:02;20.50;27.10
26035;DHT22;13809;48.632;11.576;2023-03-23T16:43:10;20.50;27.10
26035;DHT22;13809;48.632;11.576;2023-03-23T16:48:15;20.40;27.20
26035;DHT22;13809;48.632;11.576;2023-03-23T16:53:23;20.30;27.00
26035;DHT22;13809;48.632;11.576;2023-03-23T16:58:30;20.20;26.90
26035;DHT22;13809;48.632;11.576;2023-03-23T17:03:35;20.20;26.70
26035;DHT22;13809;48.632;11.576;2023-03-23T17:08:40;20.10;26.90
26035;DHT22;13809;48.632;11.576;2023-03-23T17:13:43;20.10;26.90
26035;DHT22;13809;48.632;11.576;2023-03-23T17:18:46;20.00;26.90
26035;DHT22;13809;48.632;11.576;2023-03-23T17:23:52;19.90;26.90
26035;DHT22;13809;48.632;11.576;2023-03-23T17:28:55;19.80;26.90
26035;DHT22;13809;48.632;11.576;2023-03-23T17:33:58;19.80;26.90
26035;DHT22;13809;48.632;11.576;2023-03-23T17:39:03;19.70;26.90
26035;DHT22;13809;48.632;11.576;2023-03-23T17:44:06;19.60;27.00
26035;DHT22;13809;48.632;11.576;2023-03-23T17:49:10;19.60;27.00
26035;DHT22;13809;48.632;11.576;2023-03-23T17:54:14;19.50;27.00
26035;DHT22;13809;48.632;11.576;2023-03-23T17:59:18;19.50;27.00
26035;DHT22;13809;48.632;11.576;2023-03-23T18:04:21;19.50;27.10
26035;DHT22;13809;48.632;11.576;2023-03-23T18:09:25;19.40;27.00
26035;DHT22;13809;48.632;11.576;2023-03-23T18:14:28;19.40;27.10
26035;DHT22;13809;48.632;11.576;2023-03-23T18:19:32;19.40;27.10
26035;DHT22;13809;48.632;11.576;2023-03-23T18:24:36;19.30;27.20
26035;DHT22;13809;48.632;11.576;2023-03-23T18:29:42;19.30;27.20
26035;DHT22;13809;48.632;11.576;2023-03-23T18:34:45;19.30;27.20
26035;DHT22;13809;48.632;11.576;2023-03-23T18:39:54;19.30;27.40
26035;DHT22;13809;48.632;11.576;2023-03-23T18:45:00;19.20;27.50
26035;DHT22;13809;48.632;11.576;2023-03-23T18:50:04;19.10;27.60
26035;DHT22;13809;48.632;11.576;2023-03-23T18:55:09;19.10;27.70
26035;DHT22;13809;48.632;11.576;2023-03-23T19:00:13;19.00;27.80
26035;DHT22;13809;48.632;11.576;2023-03-23T19:05:16;19.00;27.90
26035;DHT22;13809;48.632;11.576;2023-03-23T19:10:21;18.90;27.90
26035;DHT22;13809;48.632;11.576;2023-03-23T19:15:24;18.80;28.10
26035;DHT22;13809;48.632;11.576;2023-03-23T19:20:28;18.80;28.10
26035;DHT22;13809;48.632;11.576;2023-03-23T19:25:53;18.70;28.10
26035;DHT22;13809;48.632;11.576;2023-03-23T19:30:57;18.60;28.30
26035;DHT22;13809;48.632;11.576;2023-03-23T19:36:01;18.60;28.30
26035;DHT22;13809;48.632;11.576;2023-03-23T19:41:15;18.50;28.30
26035;DHT22;13809;48.632;11.576;2023-03-23T19:46:20;18.40;28.50
26035;DHT22;13809;48.632;11.576;2023-03-23T19:51:23;18.30;28.60
26035;DHT22;13809;48.632;11.576;2023-03-23T19:56:30;18.20;28.60
26035;DHT22;13809;48.632;11.576;2023-03-23T20:01:35;18.10;28.70
26035;DHT22;13809;48.632;11.576;2023-03-23T20:06:39;18.10;28.70
26035;DHT22;13809;48.632;11.576;2023-03-23T20:11:43;18.10;28.80
26035;DHT22;13809;48.632;11.576;2023-03-23T20:16:46;18.00;28.90
26035;DHT22;13809;48.632;11.576;2023-03-23T20:21:53;18.00;28.90
26035;DHT22;13809;48.632;11.576;2023-03-23T20:26:58;18.10;29.00
26035;DHT22;13809;48.632;11.576;2023-03-23T20:32:04;18.00;29.10
26035;DHT22;13809;48.632;11.576;2023-03-23T20:37:11;18.00;29.00
26035;DHT22;13809;48.632;11.576;2023-03-23T20:42:18;18.00;29.30
26035;DHT22;13809;48.632;11.576;2023-03-23T20:47:22;17.90;29.20
26035;DHT22;13809;48.632;11.576;2023-03-23T20:52:25;17.90;29.20
26035;DHT22;13809;48.632;11.576;2023-03-23T20:57:30;17.80;29.20
26035;DHT22;13809;48.632;11.576;2023-03-23T21:02:33;17.80;29.60
26035;DHT22;13809;48.632;11.576;2023-03-23T21:07:37;17.70;29.40
26035;DHT22;13809;48.632;11.576;2023-03-23T21:12:45;17.70;29.50
26035;DHT22;13809;48.632;11.576;2023-03-23T21:17:48;17.70;29.80
26035;DHT22;13809;48.632;11.576;2023-03-23T21:22:53;17.60;29.70
26035;DHT22;13809;48.632;11.576;2023-03-23T21:27:58;17.60;29.90
26035;DHT22;13809;48.632;11.576;2023-03-23T21:33:01;17.50;30.00
26035;DHT22;13809;48.632;11.576;2023-03-23T21:38:09;17.50;29.90
26035;DHT22;13809;48.632;11.576;2023-03-23T21:43:16;17.50;30.00
26035;DHT22;13809;48.632;11.576;2023-03-23T21:48:21;17.60;30.20
26035;DHT22;13809;48.632;11.576;2023-03-23T21:53:24;17.50;30.00
26035;DHT22;13809;48.632;11.576;2023-03-23T21:58:30;17.40;29.90
26035;DHT22;13809;48.632;11.576;2023-03-23T22:03:33;17.40;30.10
26035;DHT22;13809;48.632;11.576;2023-03-23T22:08:38;17.50;30.00
26035;DHT22;13809;48.632;11.576;2023-03-23T22:13:46;17.40;30.00
26035;DHT22;13809;48.632;11.576;2023-03-23T22:18:50;17.40;30.10
26035;DHT22;13809;48.632;11.576;2023-03-23T22:23:56;17.40;30.00
26035;DHT22;13809;48.632;11.576;2023-03-23T22:29:02;17.30;30.20
26035;DHT22;13809;48.632;11.576;2023-03-23T22:34:05;17.30;30.60
26035;DHT22;13809;48.632;11.576;2023-03-23T22:39:09;17.20;30.30
26035;DHT22;13809;48.632;11.576;2023-03-23T22:44:15;17.20;30.50
26035;DHT22;13809;48.632;11.576;2023-03-23T22:49:20;17.10;30.80
26035;DHT22;13809;48.632;11.576;2023-03-23T22:54:23;17.10;30.50
26035;DHT22;13809;48.632;11.576;2023-03-23T22:59:28;17.10;30.60
26035;DHT22;13809;48.632;11.576;2023-03-23T23:04:32;17.10;30.90
26035;DHT22;13809;48.632;11.576;2023-03-23T23:09:36;17.10;30.80
26035;DHT22;13809;48.632;11.576;2023-03-23T23:14:43;17.10;30.80
26035;DHT22;13809;48.632;11.576;2023-03-23T23:19:46;17.10;31.10
26035;DHT22;13809;48.632;11.576;2023-03-23T23:24:49;17.00;30.80
26035;DHT22;13809;48.632;11.576;2023-03-23T23:29:54;17.00;30.80
26035;DHT22;13809;48.632;11.576;2023-03-23T23:34:59;17.00;31.10
26035;DHT22;13809;48.632;11.576;2023-03-23T23:40:03;17.10;31.00
26035;DHT22;13809;48.632;11.576;2023-03-23T23:45:10;17.00;31.00
26035;DHT22;13809;48.632;11.576;2023-03-23T23:50:14;17.10;31.30
26035;DHT22;13809;48.632;11.576;2023-03-23T23:55:18;17.00;30.90
